Time;durP1;ratioP1;P1;durP2;ratioP2;P2;SDS_P1;SDS_P2;PMS_P1;PMS_P2;Temp;Humidity;BMP_temperature;BMP_pressure;BME280_temperature;BME280_humidity;BME280_pressure;Samples;Min_cycle;Max_cycle;Signal;HPM_P1;HPM_P2
2021/09/25 00:00:35;;;;;;;1.80;0.88;;;;;;;9.54;57.19;98872.09;5053198;28;20047;-66
2021/09/25 00:03:03;;;;;;;0.57;0.57;;;;;;;9.49;57.43;98868.38;5053716;28;20065;-66
2021/09/25 00:05:32;;;;;;;2.45;1.38;;;;;;;9.42;57.68;98871.16;5053501;28;20043;-64
2021/09/25 00:07:59;;;;;;;0.98;0.80;;;;;;;9.40;57.58;98868.66;5053546;28;20048;-68
2021/09/25 00:10:26;;;;;;;1.55;1.27;;;;;;;9.40;57.69;98867.81;5053488;28;20045;-65
2021/09/25 00:12:52;;;;;;;1.92;0.38;;;;;;;9.38;57.60;98862.56;5053345;28;20083;-65
2021/09/25 00:15:18;;;;;;;0.22;0.22;;;;;;;9.38;57.73;98859.81;5053486;28;20071;-66
2021/09/25 00:17:48;;;;;;;1.25;0.52;;;;;;;9.29;57.58;98853.78;5053685;28;20467;-65
2021/09/25 00:20:16;;;;;;;0.57;0.57;;;;;;;9.27;57.78;98852.34;5053210;28;20507;-65
2021/09/25 00:22:42;;;;;;;0.88;0.88;;;;;;;9.25;57.65;98851.72;5053329;28;20045;-65
2021/09/25 00:25:09;;;;;;;0.68;0.68;;;;;;;9.23;57.75;98853.84;5053079;28;20495;-65
2021/09/25 00:27:36;;;;;;;0.50;0.50;;;;;;;9.22;57.59;98857.66;5053145;28;20468;-66
2021/09/25 00:30:05;;;;;;;1.20;0.50;;;;;;;9.15;57.82;98854.16;5052493;28;20043;-65
2021/09/25 00:32:31;;;;;;;1.77;0.80;;;;;;;9.08;57.95;98860.53;5053025;28;20041;-65
2021/09/25 00:34:57;;;;;;;0.40;0.40;;;;;;;9.07;57.86;98852.53;5052964;28;20465;-65
2021/09/25 00:37:22;;;;;;;2.47;0.93;;;;;;;9.06;58.01;98856.34;5052662;28;20045;-65
2021/09/25 00:39:48;;;;;;;0.75;0.75;;;;;;;9.04;57.95;98862.03;5052104;28;20037;-65
2021/09/25 00:42:14;;;;;;;2.38;1.10;;;;;;;9.04;57.95;98856.56;5052639;28;20102;-67
2021/09/25 00:44:40;;;;;;;0.98;0.98;;;;;;;8.99;58.06;98850.91;5052833;28;20029;-66
2021/09/25 00:47:05;;;;;;;0.55;0.55;;;;;;;8.96;58.08;98848.59;5052940;28;20132;-68
2021/09/25 00:49:31;;;;;;;0.40;0.40;;;;;;;8.90;58.38;98853.06;5052922;28;20131;-68
2021/09/25 00:51:57;;;;;;;0.20;0.20;;;;;;;8.83;58.40;98854.19;5052548;28;20449;-69
2021/09/25 00:54:22;;;;;;;1.65;1.40;;;;;;;8.74;58.71;98857.19;5052763;28;20047;-68
2021/09/25 00:56:49;;;;;;;0.85;0.85;;;;;;;8.68;58.80;98852.59;5052491;28;20136;-69
2021/09/25 00:59:16;;;;;;;5.13;1.30;;;;;;;8.59;58.88;98843.00;5052523;28;20041;-71
2021/09/25 01:01:43;;;;;;;1.05;0.98;;;;;;;8.50;59.31;98839.69;5052653;28;20036;-70
2021/09/25 01:04:09;;;;;;;1.25;1.05;;;;;;;8.44;59.25;98839.72;5051410;28;20049;-71
2021/09/25 01:06:35;;;;;;;0.38;0.38;;;;;;;8.40;59.40;98845.59;5052540;28;20041;-70
2021/09/25 01:09:03;;;;;;;0.43;0.43;;;;;;;8.35;59.58;98844.59;5052301;28;20049;-70
2021/09/25 01:11:30;;;;;;;0.50;0.40;;;;;;;8.27;59.65;98836.66;5052483;28;20128;-70
2021/09/25 01:13:56;;;;;;;1.17;1.08;;;;;;;8.21;59.81;98841.91;5034758;28;20049;-71
2021/09/25 01:16:23;;;;;;;2.05;0.50;;;;;;;8.15;59.91;98837.34;5052394;28;20041;-69
2021/09/25 01:18:49;;;;;;;0.30;0.30;;;;;;;8.10;59.90;98828.09;5052451;28;20064;-70
2021/09/25 01:21:16;;;;;;;0.60;0.43;;;;;;;8.03;60.06;98826.25;5052323;28;20041;-70
2021/09/25 01:23:43;;;;;;;0.68;0.63;;;;;;;8.01;60.03;98825.63;5052065;28;20102;-66
2021/09/25 01:26:09;;;;;;;1.88;0.60;;;;;;;7.99;59.94;98819.53;5052271;28;20396;-65
2021/09/25 01:28:36;;;;;;;2.85;1.25;;;;;;;7.98;59.73;98820.59;5051974;28;20044;-66
2021/09/25 01:31:05;;;;;;;0.70;0.70;;;;;;;7.99;59.70;98811.31;5052297;28;20068;-67
2021/09/25 01:33:42;;;;;;;0.80;0.75;;;;;;;8.03;59.75;98809.84;5051832;28;20048;-65
2021/09/25 01:36:09;;;;;;;0.85;0.75;;;;;;;8.03;59.61;98812.56;5052011;28;20048;-65
2021/09/25 01:38:36;;;;;;;0.73;0.65;;;;;;;8.10;59.23;98806.22;5052126;28;20037;-65
2021/09/25 01:41:02;;;;;;;1.08;0.90;;;;;;;8.17;58.97;98798.81;5052188;28;20053;-67
2021/09/25 01:43:29;;;;;;;2.15;0.60;;;;;;;8.24;58.86;98791.41;5052167;28;20036;-64
2021/09/25 01:45:55;;;;;;;1.30;0.70;;;;;;;8.33;58.70;98800.19;5052071;28;20036;-64
2021/09/25 01:48:21;;;;;;;1.10;0.55;;;;;;;8.40;58.48;98801.00;5052114;28;20487;-66
2021/09/25 01:50:48;;;;;;;0.57;0.57;;;;;;;8.47;58.55;98798.25;5055056;28;20115;-66
2021/09/25 01:53:14;;;;;;;1.15;1.05;;;;;;;8.53;58.17;98797.38;5055988;28;20423;-66
2021/09/25 01:55:40;;;;;;;0.50;0.50;;;;;;;8.58;58.19;98792.91;5055921;28;20047;-66
2021/09/25 01:58:06;;;;;;;3.03;1.10;;;;;;;8.58;58.05;98798.38;5037658;28;20391;-65
2021/09/25 02:00:34;;;;;;;0.98;0.60;;;;;;;8.56;58.17;98792.28;5055812;28;20052;-68
2021/09/25 02:03:01;;;;;;;1.30;0.88;;;;;;;8.54;58.40;98794.41;5055943;28;20059;-66
2021/09/25 02:05:27;;;;;;;0.50;0.50;;;;;;;8.53;58.34;98787.25;5055913;28;20041;-65
2021/09/25 02:07:53;;;;;;;0.98;0.75;;;;;;;8.59;58.26;98785.53;5056437;28;20488;-64
2021/09/25 02:10:19;;;;;;;1.45;1.35;;;;;;;8.67;58.08;98784.41;5055802;28;20087;-65
2021/09/25 02:12:45;;;;;;;1.77;1.48;;;;;;;8.70;58.05;98776.59;5037902;28;20029;-70
2021/09/25 02:15:12;;;;;;;0.55;0.55;;;;;;;8.73;57.89;98775.28;5055927;28;20037;-68
2021/09/25 02:17:39;;;;;;;1.25;1.05;;;;;;;8.79;57.99;98774.41;5055265;28;20037;-67
2021/09/25 02:20:07;;;;;;;0.55;0.55;;;;;;;8.80;57.78;98773.34;5055643;28;20041;-71
2021/09/25 02:22:32;;;;;;;0.82;0.73;;;;;;;8.82;57.87;98764.91;5055428;28;20411;-69
2021/09/25 02:24:59;;;;;;;1.27;1.13;;;;;;;8.86;57.70;98771.59;5055818;28;20136;-69
2021/09/25 02:27:24;;;;;;;0.60;0.60;;;;;;;8.84;58.19;98768.25;5055766;28;20053;-68
2021/09/25 02:29:50;;;;;;;0.50;0.50;;;;;;;8.80;57.92;98769.78;5054881;28;20037;-66
2021/09/25 02:32:16;;;;;;;2.22;0.85;;;;;;;8.80;57.88;98764.28;5055324;28;20489;-66
2021/09/25 02:34:41;;;;;;;1.58;1.02;;;;;;;8.81;57.99;98768.72;5055141;28;20052;-65
2021/09/25 02:37:07;;;;;;;0.68;0.68;;;;;;;8.76;58.04;98762.00;5054929;28;20041;-67
2021/09/25 02:39:34;;;;;;;0.90;0.88;;;;;;;8.75;58.13;98760.31;5055502;28;20135;-66
2021/09/25 02:42:00;;;;;;;0.68;0.68;;;;;;;8.77;58.09;98752.75;5055333;28;20037;-67
2021/09/25 02:44:27;;;;;;;0.95;0.85;;;;;;;8.76;58.02;98756.53;5055059;28;20055;-67
2021/09/25 02:46:53;;;;;;;1.10;0.77;;;;;;;8.69;58.26;98750.28;5055035;28;20044;-64
2021/09/25 02:49:20;;;;;;;0.52;0.52;;;;;;;8.63;58.13;98753.91;5054911;28;20499;-65
2021/09/25 02:51:47;;;;;;;1.55;1.42;;;;;;;8.57;58.48;98749.34;5054859;28;20163;-65
2021/09/25 02:54:13;;;;;;;1.05;0.70;;;;;;;8.55;58.05;98748.72;5054904;28;20106;-67
2021/09/25 02:56:39;;;;;;;1.05;0.73;;;;;;;8.57;58.31;98747.44;5054804;28;20495;-66
2021/09/25 02:59:05;;;;;;;1.92;1.02;;;;;;;8.65;58.22;98743.56;5051209;28;20051;-64
2021/09/25 03:01:32;;;;;;;0.52;0.52;;;;;;;8.80;57.95;98737.75;5053953;28;20603;-70
2021/09/25 03:03:58;;;;;;;0.80;0.80;;;;;;;9.69;55.93;98742.03;5054566;28;20036;-69
2021/09/25 03:06:26;;;;;;;0.65;0.65;;;;;;;9.96;55.47;98737.84;5053634;28;20059;-63
2021/09/25 03:08:53;;;;;;;1.08;1.05;;;;;;;11.53;52.14;98734.75;5054358;28;20121;-63
2021/09/25 03:11:19;;;;;;;0.40;0.40;;;;;;;12.33;50.60;98734.13;5054622;28;20095;-65
2021/09/25 03:13:45;;;;;;;1.08;0.65;;;;;;;14.04;47.93;98716.13;5054554;28;20036;-63
2021/09/25 03:16:13;;;;;;;0.73;0.30;;;;;;;14.18;48.25;98706.34;5054456;28;20045;-64
2021/09/25 03:18:39;;;;;;;0.45;0.45;;;;;;;13.57;49.74;98712.00;5054432;28;20127;-63
2021/09/25 03:21:05;;;;;;;0.60;0.55;;;;;;;13.79;49.64;98707.31;5054705;28;20043;-64
2021/09/25 03:23:31;;;;;;;0.75;0.73;;;;;;;15.06;47.47;98705.97;5054438;28;20073;-63
2021/09/25 03:25:57;;;;;;;0.45;0.45;;;;;;;16.51;45.31;98706.50;5054528;28;20495;-66
2021/09/25 03:28:22;;;;;;;0.40;0.32;;;;;;;17.66;43.71;98698.53;5053974;28;20408;-64
2021/09/25 03:30:48;;;;;;;0.28;0.28;;;;;;;16.59;46.04;98697.59;5054398;28;20048;-65
2021/09/25 03:33:14;;;;;;;1.15;0.98;;;;;;;15.11;49.35;98696.88;5036621;28;20048;-66
2021/09/25 03:35:46;;;;;;;1.05;0.80;;;;;;;13.80;52.00;98700.69;5054104;28;20040;-69
2021/09/25 03:38:19;;;;;;;0.40;0.35;;;;;;;12.86;53.96;98685.94;5054334;28;20045;-68
2021/09/25 03:40:46;;;;;;;0.98;0.70;;;;;;;12.16;55.02;98693.66;5054397;28;20136;-71
2021/09/25 03:43:12;;;;;;;0.63;0.63;;;;;;;11.74;55.95;98694.75;5054126;28;20170;-68
2021/09/25 03:45:38;;;;;;;0.63;0.57;;;;;;;11.50;56.07;98707.75;5054227;28;20075;-71
2021/09/25 03:48:05;;;;;;;0.50;0.50;;;;;;;11.26;55.83;98706.97;5054008;28;20124;-71
2021/09/25 03:50:35;;;;;;;1.55;0.47;;;;;;;10.97;56.33;98715.13;5054033;28;20183;-69
2021/09/25 03:53:02;;;;;;;0.70;0.70;;;;;;;10.79;56.29;98716.09;5053650;28;20526;-70
2021/09/25 03:55:28;;;;;;;0.65;0.65;;;;;;;10.80;56.03;98720.50;5053765;28;20464;-66
2021/09/25 03:57:56;;;;;;;0.98;0.75;;;;;;;10.92;55.28;98716.94;5051026;28;20523;-65
2021/09/25 04:00:23;;;;;;;0.50;0.50;;;;;;;10.89;55.10;98714.66;5052705;28;20139;-66
2021/09/25 04:02:52;;;;;;;1.02;0.52;;;;;;;10.77;54.89;98712.75;5053701;28;20491;-66
2021/09/25 04:05:19;;;;;;;2.40;0.45;;;;;;;10.63;55.07;98709.41;5052912;28;20415;-65
2021/09/25 04:07:46;;;;;;;0.32;0.32;;;;;;;10.67;54.85;98705.13;5053668;28;20041;-66
2021/09/25 04:10:13;;;;;;;0.22;0.22;;;;;;;10.71;54.61;98715.63;5053633;28;20119;-64
2021/09/25 04:12:39;;;;;;;0.57;0.57;;;;;;;10.74;54.49;98715.16;5053400;28;20040;-68
2021/09/25 04:15:07;;;;;;;3.03;0.98;;;;;;;10.79;54.23;98713.38;5051671;28;20033;-69
2021/09/25 04:17:33;;;;;;;0.65;0.65;;;;;;;10.79;54.10;98723.50;5053036;28;20044;-74
2021/09/25 04:19:59;;;;;;;0.25;0.25;;;;;;;10.86;53.76;98713.22;5043230;28;20547;-65
2021/09/25 04:22:24;;;;;;;0.45;0.45;;;;;;;10.90;53.68;98714.41;5035393;28;20044;-65
2021/09/25 04:24:50;;;;;;;0.68;0.68;;;;;;;11.00;53.50;98711.91;5053131;28;20076;-65
2021/09/25 04:27:16;;;;;;;1.15;0.65;;;;;;;11.04;53.46;98699.38;5053162;28;20056;-70
2021/09/25 04:29:42;;;;;;;0.60;0.60;;;;;;;11.09;53.04;98708.81;5052783;28;20037;-66
2021/09/25 04:32:07;;;;;;;5.60;0.40;;;;;;;11.13;53.06;98701.72;5002489;28;20045;-64
2021/09/25 04:34:33;;;;;;;0.45;0.45;;;;;;;11.20;52.94;98700.53;5052732;28;20045;-65
2021/09/25 04:36:59;;;;;;;0.28;0.28;;;;;;;11.19;52.86;98698.03;5040362;28;20459;-63
2021/09/25 04:39:25;;;;;;;0.30;0.30;;;;;;;11.11;53.33;98696.47;5042130;28;20072;-61
2021/09/25 04:41:51;;;;;;;0.65;0.40;;;;;;;11.01;53.42;98685.25;5041749;28;20041;-65
2021/09/25 04:44:17;;;;;;;0.60;0.60;;;;;;;10.93;53.43;98693.88;5041314;28;20072;-67
2021/09/25 04:46:44;;;;;;;0.80;0.70;;;;;;;10.94;53.56;98681.81;5042613;28;20071;-67
2021/09/25 04:49:10;;;;;;;0.82;0.43;;;;;;;11.00;53.31;98686.34;5041370;28;20041;-71
2021/09/25 04:51:36;;;;;;;0.25;0.25;;;;;;;11.12;52.98;98684.41;5040801;28;20049;-67
2021/09/25 04:54:03;;;;;;;3.83;0.38;;;;;;;11.21;52.90;98677.47;5039358;28;20059;-67
2021/09/25 04:56:32;;;;;;;2.42;0.38;;;;;;;11.39;52.47;98681.13;5039282;28;20132;-66
2021/09/25 04:58:58;;;;;;;1.38;0.90;;;;;;;11.58;52.06;98687.28;5052058;28;20052;-67
2021/09/25 05:01:24;;;;;;;0.20;0.20;;;;;;;11.81;51.83;98683.63;5042657;28;20115;-67
2021/09/25 05:03:50;;;;;;;0.40;0.40;;;;;;;12.03;51.21;98680.19;5041638;28;20504;-67
2021/09/25 05:06:16;;;;;;;0.40;0.40;;;;;;;12.14;51.13;98681.19;5040994;28;20086;-69
2021/09/25 05:08:42;;;;;;;0.35;0.35;;;;;;;12.24;51.11;98684.13;5041930;28;20041;-66
2021/09/25 05:11:08;;;;;;;1.45;0.47;;;;;;;12.31;50.85;98682.06;5040113;28;20120;-65
2021/09/25 05:13:34;;;;;;;0.40;0.40;;;;;;;12.47;50.59;98672.13;5041319;28;20076;-68
2021/09/25 05:16:00;;;;;;;0.40;0.35;;;;;;;12.61;50.31;98669.88;5041983;28;20048;-69
2021/09/25 05:18:25;;;;;;;0.63;0.63;;;;;;;12.67;50.50;98670.78;5040410;28;20041;-64
2021/09/25 05:20:54;;;;;;;0.63;0.63;;;;;;;12.61;50.22;98659.66;5041682;28;20060;-68
2021/09/25 05:23:20;;;;;;;0.30;0.30;;;;;;;12.51;50.49;98655.94;5041319;28;20040;-70
2021/09/25 05:25:46;;;;;;;2.00;0.52;;;;;;;12.47;50.86;98652.84;5039117;28;20492;-66
2021/09/25 05:28:12;;;;;;;1.27;0.80;;;;;;;12.38;50.83;98646.94;5040888;28;20037;-68
2021/09/25 05:30:39;;;;;;;1.10;1.00;;;;;;;12.51;50.63;98658.69;5041396;28;20123;-67
2021/09/25 05:33:08;;;;;;;0.90;0.20;;;;;;;12.64;50.51;98663.03;5039771;28;20415;-65
2021/09/25 05:35:34;;;;;;;0.93;0.32;;;;;;;12.44;50.69;98664.38;5041029;28;20112;-68
2021/09/25 05:38:00;;;;;;;1.40;0.80;;;;;;;12.27;50.87;98656.94;5041433;28;20417;-69
2021/09/25 05:40:26;;;;;;;0.28;0.28;;;;;;;12.34;50.81;98661.47;5039788;28;20029;-70
2021/09/25 05:42:52;;;;;;;0.40;0.40;;;;;;;12.55;50.55;98657.94;5041137;28;20047;-65
2021/09/25 05:45:18;;;;;;;4.28;0.88;;;;;;;12.64;50.20;98657.50;5041356;28;20099;-65
2021/09/25 05:47:44;;;;;;;1.00;0.63;;;;;;;12.75;50.12;98656.56;5039659;28;20056;-64
2021/09/25 05:50:11;;;;;;;0.55;0.55;;;;;;;12.76;50.25;98652.72;5041120;28;20033;-64
2021/09/25 05:52:37;;;;;;;0.20;0.20;;;;;;;12.82;49.99;98662.72;5040859;28;20049;-65
2021/09/25 05:55:04;;;;;;;0.20;0.20;;;;;;;12.90;49.92;98669.75;5039447;28;20057;-64
2021/09/25 05:57:30;;;;;;;0.28;0.28;;;;;;;12.91;49.86;98666.75;5023907;28;20111;-65
2021/09/25 05:59:56;;;;;;;0.77;0.73;;;;;;;12.82;49.53;98667.41;5040267;28;20041;-64
2021/09/25 06:02:21;;;;;;;0.75;0.75;;;;;;;12.60;50.41;98659.91;5039556;28;20048;-65
2021/09/25 06:04:47;;;;;;;0.30;0.30;;;;;;;12.38;50.70;98668.09;5037256;28;20041;-65
2021/09/25 06:07:13;;;;;;;0.88;0.88;;;;;;;12.17;50.58;98650.44;5039593;28;20044;-64
2021/09/25 06:09:41;;;;;;;6.10;0.73;;;;;;;11.99;51.18;98648.75;5040970;28;20038;-64
2021/09/25 06:12:07;;;;;;;0.57;0.57;;;;;;;11.83;51.18;98653.94;5039391;28;20491;-64
2021/09/25 06:14:33;;;;;;;0.63;0.63;;;;;;;11.71;51.40;98653.16;5024523;28;20124;-64
2021/09/25 06:16:59;;;;;;;3.50;0.80;;;;;;;11.63;51.23;98648.91;5042065;28;20563;-64
2021/09/25 06:19:24;;;;;;;0.50;0.50;;;;;;;11.61;51.20;98641.97;5039230;28;20045;-63
2021/09/25 06:21:50;;;;;;;1.30;0.63;;;;;;;11.64;51.00;98635.97;5041332;28;20037;-64
2021/09/25 06:24:16;;;;;;;0.63;0.63;;;;;;;11.75;50.79;98632.34;5040455;28;20037;-65
2021/09/25 06:26:42;;;;;;;0.45;0.45;;;;;;;11.95;49.89;98642.06;5039872;28;20041;-65
2021/09/25 06:29:07;;;;;;;1.85;0.43;;;;;;;12.07;49.83;98631.81;5040906;28;20124;-64
2021/09/25 06:31:34;;;;;;;0.93;0.73;;;;;;;12.14;49.73;98632.47;5029962;28;20037;-66
2021/09/25 06:34:01;;;;;;;0.85;0.70;;;;;;;12.26;49.60;98625.00;5039852;28;20116;-64
2021/09/25 06:36:26;;;;;;;1.45;0.40;;;;;;;12.29;49.58;98631.06;5041824;28;20048;-64
2021/09/25 06:38:52;;;;;;;0.30;0.30;;;;;;;12.35;49.58;98630.06;5042883;28;20041;-63
2021/09/25 06:41:18;;;;;;;1.30;0.93;;;;;;;12.36;49.08;98632.56;5043962;28;20080;-64
2021/09/25 06:43:45;;;;;;;0.40;0.40;;;;;;;12.32;49.37;98628.66;5044718;28;20048;-63
2021/09/25 06:46:11;;;;;;;0.50;0.50;;;;;;;12.18;49.50;98630.09;5042742;28;20091;-64
2021/09/25 06:48:38;;;;;;;2.42;0.75;;;;;;;12.04;49.89;98622.16;5043719;28;20399;-65
2021/09/25 06:51:03;;;;;;;0.68;0.68;;;;;;;11.95;50.30;98628.31;5044320;28;20033;-64
2021/09/25 06:53:29;;;;;;;0.40;0.40;;;;;;;11.85;50.21;98642.69;5042308;28;20466;-65
2021/09/25 06:55:55;;;;;;;0.68;0.68;;;;;;;11.78;50.41;98634.59;5044070;28;20040;-64
2021/09/25 06:58:21;;;;;;;0.20;0.20;;;;;;;11.72;50.28;98632.84;5043299;28;20071;-64
2021/09/25 07:00:47;;;;;;;0.35;0.35;;;;;;;11.73;50.48;98629.84;5042296;28;20088;-63
2021/09/25 07:03:14;;;;;;;0.52;0.40;;;;;;;11.73;50.28;98620.72;5043960;28;20438;-63
2021/09/25 07:05:40;;;;;;;0.10;0.10;;;;;;;11.71;50.26;98622.91;5043531;28;20041;-63
2021/09/25 07:08:06;;;;;;;0.30;0.30;;;;;;;11.69;50.05;98625.06;5042257;28;20052;-63
2021/09/25 07:10:32;;;;;;;0.50;0.50;;;;;;;11.74;49.97;98614.16;5034252;28;20037;-64
2021/09/25 07:12:58;;;;;;;1.58;0.98;;;;;;;11.80;49.53;98617.84;5043150;28;20037;-64
2021/09/25 07:15:25;;;;;;;0.20;0.20;;;;;;;11.86;49.48;98614.91;5042295;28;20398;-64
2021/09/25 07:17:51;;;;;;;1.95;1.05;;;;;;;11.96;48.96;98624.47;5044019;28;20048;-63
2021/09/25 07:20:18;;;;;;;0.63;0.40;;;;;;;11.97;49.23;98613.22;5042893;28;20124;-64
2021/09/25 07:22:46;;;;;;;0.20;0.20;;;;;;;12.01;48.95;98622.63;5042287;28;20076;-64
2021/09/25 07:25:12;;;;;;;0.73;0.50;;;;;;;12.03;48.86;98619.66;5044056;28;20032;-64
2021/09/25 07:27:40;;;;;;;0.20;0.20;;;;;;;12.04;48.81;98616.66;5043039;28;20045;-64
2021/09/25 07:30:48;;;;;;;0.57;0.45;;;;;;;12.13;48.64;98599.72;5041700;28;20394;-64
2021/09/25 07:40:40;;;;;;;0.70;0.63;;;;;;;12.44;48.24;98606.56;5040273;28;20060;-64
2021/09/25 07:43:25;;;;;;;;;;;;;;;12.60;47.98;98597.44;5041660;28;20041;-67
2021/09/25 07:53:17;;;;;;;0.40;0.30;;;;;;;12.61;48.03;98576.22;5036729;28;20055;-64
2021/09/25 07:56:02;;;;;;;;;;;;;;;12.64;47.67;98566.63;5038174;28;20140;-64
2021/09/25 08:05:54;;;;;;;0.75;0.75;;;;;;;12.88;47.37;98561.69;5039601;28;20095;-64
2021/09/25 08:09:00;;;;;;;0.75;0.75;;;;;;;12.99;47.06;98568.19;5041935;28;20131;-64
2021/09/25 08:11:45;;;;;;;;;;;;;;;13.00;47.35;98573.44;5043268;28;20056;-65
2021/09/25 08:18:13;;;;;;;0.22;0.22;;;;;;;13.07;47.12;98584.25;5035210;28;20043;-63
2021/09/25 08:20:58;;;;;;;;;;;;;;;13.01;47.19;98574.25;5042188;28;20203;-64
2021/09/25 08:30:52;;;;;;;0.75;0.40;;;;;;;13.20;46.61;98570.06;5036733;28;20091;-64
2021/09/25 08:37:21;;;;;;;0.60;0.60;;;;;;;13.37;46.64;98564.50;5039734;28;20511;-67
2021/09/25 08:40:07;;;;;;;;;;;;;;;13.44;46.62;98561.53;5034169;28;20051;-69
2021/09/25 08:46:40;;;;;;;0.20;0.20;;;;;;;13.43;46.42;98568.97;5039263;28;20043;-67
2021/09/25 08:59:55;;;;;;;0.30;0.30;;;;;;;13.54;46.08;98558.06;5032685;28;20529;-69
2021/09/25 09:02:40;;;;;;;;;;;;;;;13.64;46.06;98564.50;5038118;28;20095;-71
2021/09/25 09:05:49;;;;;;;0.30;0.30;;;;;;;13.70;46.03;98561.81;5031412;28;19917;-70
2021/09/25 09:12:21;;;;;;;0.40;0.40;;;;;;;13.76;45.67;98549.72;5034235;28;20084;-71
2021/09/25 09:18:53;;;;;;;0.75;0.68;;;;;;;13.82;45.77;98549.50;5033997;28;20107;-70
2021/09/25 09:25:36;;;;;;;1.27;0.55;;;;;;;13.77;45.81;98538.41;5027037;28;20096;-67
2021/09/25 09:28:22;;;;;;;;;;;;;;;13.76;45.58;98538.69;5039714;28;20450;-68
2021/09/25 09:44:59;;;;;;;0.10;0.10;;;;;;;13.70;45.60;98526.75;5028927;28;20048;-69
2021/09/25 09:47:44;;;;;;;;;;;;;;;13.68;45.83;98520.69;5038974;28;20052;-68
2021/09/25 09:50:51;;;;;;;0.40;0.40;;;;;;;13.71;45.79;98531.19;5037212;28;19924;-67
2021/09/25 13:58:39;;;;;;;0.45;0.45;;;;;;;11.78;45.77;98477.81;5084911;28;20055;-65
2021/09/25 14:01:08;;;;;;;1.08;0.57;;;;;;;11.74;45.83;98468.38;5090966;28;20115;-62
2021/09/25 14:03:34;;;;;;;0.63;0.63;;;;;;;11.70;45.82;98476.31;5092890;28;20064;-63
2021/09/25 14:06:00;;;;;;;0.35;0.35;;;;;;;11.70;45.66;98486.47;5090667;28;20042;-62
2021/09/25 14:08:28;;;;;;;0.55;0.55;;;;;;;11.68;45.63;98488.63;5086345;28;20577;-63
2021/09/25 14:10:54;;;;;;;0.28;0.28;;;;;;;11.66;45.70;98477.03;5091403;28;20063;-64
2021/09/25 14:13:28;;;;;;;0.30;0.30;;;;;;;11.62;45.69;98484.97;5091975;28;20469;-66
2021/09/25 14:15:54;;;;;;;0.40;0.40;;;;;;;11.58;45.75;98487.38;5086080;28;20524;-64
2021/09/25 14:18:19;;;;;;;1.38;0.40;;;;;;;11.56;45.30;98492.28;5092336;28;20044;-65
2021/09/25 14:20:46;;;;;;;2.10;0.57;;;;;;;11.54;45.27;98499.13;5087148;28;20042;-64
2021/09/25 14:23:13;;;;;;;0.45;0.45;;;;;;;11.51;45.64;98486.72;5090193;28;20086;-65
2021/09/25 14:25:41;;;;;;;1.02;1.02;;;;;;;11.47;45.67;98488.31;5092050;28;20036;-63
2021/09/25 14:28:08;;;;;;;0.35;0.35;;;;;;;11.42;45.64;98485.44;5092112;28;20048;-63
2021/09/25 14:30:37;;;;;;;1.13;1.00;;;;;;;11.37;45.38;98488.94;5091093;28;20437;-64
2021/09/25 14:33:04;;;;;;;0.88;0.82;;;;;;;11.34;45.53;98489.44;5092007;28;20046;-65
2021/09/25 14:35:30;;;;;;;0.77;0.70;;;;;;;11.30;45.85;98493.75;5090720;28;20044;-64
2021/09/25 14:37:55;;;;;;;0.30;0.30;;;;;;;11.27;45.88;98493.44;5090216;28;20090;-68
2021/09/25 14:40:28;;;;;;;1.38;1.10;;;;;;;11.22;45.88;98486.75;5089034;28;20564;-68
2021/09/25 14:42:53;;;;;;;1.08;0.85;;;;;;;11.21;45.59;98506.25;5089921;28;20087;-68
2021/09/25 14:45:19;;;;;;;0.98;0.88;;;;;;;11.18;45.57;98499.31;5074138;28;20043;-67
2021/09/25 14:47:45;;;;;;;0.60;0.60;;;;;;;11.15;45.71;98497.06;5092435;28;20039;-64
2021/09/25 14:50:15;;;;;;;0.20;0.20;;;;;;;11.13;45.55;98499.25;5089161;28;20410;-63
2021/09/25 14:52:41;;;;;;;5.72;0.65;;;;;;;11.10;45.88;98502.47;5090102;28;20044;-65
2021/09/25 14:55:07;;;;;;;0.35;0.35;;;;;;;11.06;45.68;98498.56;5093851;28;20134;-66
2021/09/25 14:57:33;;;;;;;1.08;1.08;;;;;;;11.04;45.53;98501.53;5091781;28;20044;-66
2021/09/25 14:59:58;;;;;;;1.10;1.00;;;;;;;11.00;46.04;98505.03;5088607;28;20098;-65
2021/09/25 15:02:25;;;;;;;1.15;1.13;;;;;;;10.98;45.83;98509.94;5089870;28;20051;-62
2021/09/25 15:04:54;;;;;;;0.40;0.40;;;;;;;10.97;45.92;98506.34;5091456;28;20086;-64
2021/09/25 15:07:22;;;;;;;1.58;0.80;;;;;;;10.97;45.86;98508.28;5091612;28;20047;-68
2021/09/25 15:09:48;;;;;;;0.93;0.63;;;;;;;10.96;45.69;98509.34;5062055;28;20085;-67
2021/09/25 15:12:14;;;;;;;2.42;0.75;;;;;;;10.96;45.95;98492.88;5091613;28;20048;-66
2021/09/25 15:14:43;;;;;;;0.32;0.30;;;;;;;10.94;45.83;98500.50;5091478;28;20032;-67
2021/09/25 15:17:10;;;;;;;0.40;0.40;;;;;;;10.89;45.65;98501.25;5087315;28;20036;-68
2021/09/25 15:19:36;;;;;;;0.30;0.30;;;;;;;10.86;45.97;98488.84;5087705;28;20048;-69
2021/09/25 15:22:03;;;;;;;0.38;0.38;;;;;;;10.83;45.78;98494.81;5090715;28;20055;-66
2021/09/25 15:24:29;;;;;;;0.25;0.25;;;;;;;10.81;45.99;98488.72;5090173;28;20120;-66
2021/09/25 15:26:55;;;;;;;0.30;0.30;;;;;;;10.79;46.03;98493.66;5093187;28;20613;-64
2021/09/25 15:29:21;;;;;;;0.60;0.60;;;;;;;10.76;45.84;98488.66;5091132;28;20143;-65
2021/09/25 15:31:47;;;;;;;1.08;0.30;;;;;;;10.71;45.96;98496.75;5090699;28;20071;-65
2021/09/25 15:34:13;;;;;;;9.52;0.93;;;;;;;10.66;46.19;98493.94;5091467;28;20062;-66
2021/09/25 15:36:41;;;;;;;0.30;0.30;;;;;;;10.59;46.25;98493.22;5089686;28;20460;-70
2021/09/25 15:39:07;;;;;;;0.55;0.50;;;;;;;10.51;46.25;98487.03;5090073;28;20047;-70
2021/09/25 15:41:33;;;;;;;1.00;0.65;;;;;;;10.46;46.24;98492.41;5090655;28;20044;-68
2021/09/25 15:44:00;;;;;;;0.45;0.45;;;;;;;10.43;46.56;98487.41;5090087;28;20040;-68
2021/09/25 15:46:26;;;;;;;0.60;0.60;;;;;;;10.38;46.36;98487.31;5093033;28;20036;-72
2021/09/25 15:48:53;;;;;;;0.68;0.68;;;;;;;10.35;46.62;98493.28;5090537;28;20055;-64
2021/09/25 15:51:19;;;;;;;0.30;0.30;;;;;;;10.30;46.48;98491.22;5090382;28;20521;-69
2021/09/25 15:53:45;;;;;;;0.45;0.45;;;;;;;10.24;46.48;98491.34;5091168;28;20040;-65
2021/09/25 15:56:11;;;;;;;2.75;0.50;;;;;;;10.24;46.51;98486.69;5092236;28;20036;-68
2021/09/25 15:58:37;;;;;;;2.60;0.70;;;;;;;10.22;46.72;98496.22;5089012;28;20078;-72
2021/09/25 16:01:03;;;;;;;0.75;0.40;;;;;;;10.18;46.65;98496.72;5088459;28;20059;-69
2021/09/25 16:03:32;;;;;;;0.80;0.43;;;;;;;10.09;46.87;98484.44;5086536;28;20056;-68
2021/09/25 16:05:57;;;;;;;1.02;0.98;;;;;;;10.09;46.94;98492.66;5079876;28;20044;-68
2021/09/25 16:08:23;;;;;;;0.40;0.40;;;;;;;10.06;46.89;98501.38;5085853;28;20059;-68
2021/09/25 16:10:50;;;;;;;0.65;0.60;;;;;;;10.06;46.88;98498.63;5088516;28;20051;-65
2021/09/25 16:13:17;;;;;;;0.50;0.50;;;;;;;10.08;46.70;98501.97;5085427;28;20035;-64
2021/09/25 16:15:44;;;;;;;0.57;0.45;;;;;;;10.10;46.73;98499.84;5070925;28;20048;-63
2021/09/25 16:18:11;;;;;;;0.38;0.38;;;;;;;10.10;46.83;98501.72;5086478;28;20517;-67
2021/09/25 16:20:37;;;;;;;0.50;0.50;;;;;;;10.13;46.71;98490.31;5091615;28;20048;-68
2021/09/25 16:23:03;;;;;;;0.30;0.30;;;;;;;10.16;46.68;98495.31;5090336;28;20055;-66
2021/09/25 16:25:29;;;;;;;0.30;0.30;;;;;;;10.17;46.47;98500.56;5083490;28;20048;-66
2021/09/25 16:27:56;;;;;;;1.65;0.65;;;;;;;10.18;46.46;98498.63;5087136;28;20127;-68
2021/09/25 16:30:22;;;;;;;0.30;0.30;;;;;;;10.17;46.63;98494.22;5089317;28;20127;-65
2021/09/25 16:32:48;;;;;;;0.57;0.57;;;;;;;10.18;46.75;98504.13;5087736;28;20039;-65
2021/09/25 16:35:14;;;;;;;0.28;0.28;;;;;;;10.18;46.45;98496.72;5091206;28;20123;-68
2021/09/25 16:37:40;;;;;;;0.30;0.30;;;;;;;10.20;46.62;98496.47;5089515;28;20123;-69
2021/09/25 16:40:06;;;;;;;0.35;0.35;;;;;;;10.17;46.61;98485.97;5090501;28;20051;-70
2021/09/25 16:42:32;;;;;;;0.28;0.28;;;;;;;10.19;46.66;98500.31;5070476;28;20036;-67
2021/09/25 16:44:58;;;;;;;0.52;0.52;;;;;;;10.19;46.63;98497.56;5088283;28;20063;-67
2021/09/25 16:47:26;;;;;;;1.45;0.47;;;;;;;10.15;46.66;98499.13;5090535;28;20098;-71
2021/09/25 16:49:52;;;;;;;0.28;0.28;;;;;;;10.10;46.63;98497.09;5089792;28;20040;-71
2021/09/25 16:52:18;;;;;;;0.30;0.30;;;;;;;10.12;46.79;98503.16;5089202;28;20071;-67
2021/09/25 16:54:43;;;;;;;0.43;0.43;;;;;;;10.10;46.66;98502.56;5089636;28;20383;-68
2021/09/25 16:57:09;;;;;;;0.43;0.43;;;;;;;10.09;46.94;98506.38;5088437;28;20110;-70
2021/09/25 16:59:38;;;;;;;0.40;0.40;;;;;;;10.06;46.72;98501.38;5089231;28;20040;-70
2021/09/25 17:02:04;;;;;;;0.20;0.20;;;;;;;10.03;46.72;98504.59;5089694;28;20139;-69